createdAt,value
2019-05-25T00:01:01.596Z,67.60
2019-05-25T00:03:28.664Z,68.60
2019-05-25T00:05:55.725Z,69.00
2019-05-25T00:08:22.738Z,70.50
2019-05-25T00:10:49.788Z,71.60
2019-05-25T00:13:16.780Z,72.10
2019-05-25T00:15:43.859Z,71.60
2019-05-25T00:18:10.891Z,72.10
2019-05-25T00:20:38.069Z,72.50
2019-05-25T00:23:05.086Z,72.40
2019-05-25T00:25:32.137Z,73.10
2019-05-25T00:28:01.856Z,73.20
2019-05-25T00:30:28.892Z,73.10
2019-05-25T00:32:55.942Z,73.50
2019-05-25T00:35:22.858Z,73.40
2019-05-25T00:37:49.779Z,73.40
2019-05-25T00:40:16.660Z,73.40
2019-05-25T00:42:43.735Z,73.40
2019-05-25T00:45:10.739Z,72.70
2019-05-25T00:47:37.763Z,71.50
2019-05-25T00:50:05.264Z,72.40
2019-05-25T00:52:32.297Z,70.20
2019-05-25T00:54:59.432Z,69.50
2019-05-25T00:57:26.437Z,69.60
2019-05-25T00:59:53.443Z,70.00
2019-05-25T01:02:20.364Z,70.00
2019-05-25T01:04:47.398Z,70.20
2019-05-25T01:07:14.471Z,70.00
2019-05-25T01:09:41.448Z,69.50
2019-05-25T01:12:08.324Z,69.10
2019-05-25T01:14:35.346Z,68.60
2019-05-25T01:17:02.504Z,68.00
2019-05-25T01:19:29.612Z,68.10
2019-05-25T01:21:56.710Z,67.20
2019-05-25T01:24:23.734Z,67.40
2019-05-25T01:26:50.735Z,66.90
2019-05-25T01:29:17.698Z,66.20
2019-05-25T01:31:45.649Z,65.60
2019-05-25T01:34:12.687Z,65.90
2019-05-25T01:36:39.649Z,66.10
2019-05-25T01:39:06.964Z,65.80
2019-05-25T01:41:34.060Z,65.40
2019-05-25T01:44:01.093Z,65.30
2019-05-25T01:46:30.637Z,64.70
2019-05-25T01:48:57.608Z,64.90
2019-05-25T01:51:24.574Z,64.70
2019-05-25T01:53:51.621Z,64.60
2019-05-25T01:56:18.691Z,64.50
2019-05-25T01:58:47.319Z,63.70
2019-05-25T02:01:14.378Z,63.70
2019-05-25T02:03:41.360Z,63.60
2019-05-25T02:06:08.293Z,63.40
2019-05-25T02:08:35.255Z,63.60
2019-05-25T02:11:02.499Z,63.50
2019-05-25T02:13:29.565Z,63.00
2019-05-25T02:15:56.596Z,62.60
2019-05-25T02:18:23.541Z,61.70
2019-05-25T02:20:50.521Z,61.10
2019-05-25T02:23:17.777Z,61.10
2019-05-25T02:25:44.735Z,60.70
2019-05-25T02:28:11.741Z,60.40
2019-05-25T02:30:38.804Z,60.40
2019-05-25T02:33:05.800Z,61.00
2019-05-25T02:35:32.919Z,61.80
2019-05-25T02:37:59.924Z,61.80
2019-05-25T02:40:26.954Z,61.50
2019-05-25T02:42:53.946Z,60.30
2019-05-25T02:45:21.070Z,60.40
2019-05-25T02:47:48.312Z,61.20
2019-05-25T02:50:15.512Z,61.40
2019-05-25T02:52:42.465Z,59.60
2019-05-25T02:55:10.928Z,58.20
2019-05-25T02:57:37.852Z,59.30
2019-05-25T03:00:05.407Z,58.00
2019-05-25T03:02:32.446Z,58.00
2019-05-25T03:04:59.435Z,58.20
2019-05-25T03:07:26.992Z,58.10
2019-05-25T03:09:55.711Z,57.30
2019-05-25T03:12:22.776Z,56.70
2019-05-25T03:14:49.756Z,57.50
2019-05-25T03:17:16.695Z,57.10
2019-05-25T03:19:43.696Z,57.20
2019-05-25T03:22:10.791Z,56.90
2019-05-25T03:24:37.761Z,56.90
2019-05-25T03:27:04.806Z,56.70
2019-05-25T03:29:31.729Z,56.50
2019-05-25T03:31:59.530Z,56.30
2019-05-25T03:34:26.596Z,56.60
2019-05-25T03:36:53.665Z,55.80
2019-05-25T03:39:20.602Z,55.30
2019-05-25T03:41:47.510Z,56.00
2019-05-25T03:44:14.678Z,56.00
2019-05-25T03:46:41.700Z,56.20
2019-05-25T03:49:08.788Z,55.60
2019-05-25T03:51:35.813Z,55.40
2019-05-25T03:54:02.974Z,56.00
2019-05-25T03:56:29.941Z,56.20
2019-05-25T03:58:57.126Z,55.80
2019-05-25T04:01:24.176Z,55.30
2019-05-25T04:03:51.113Z,55.20
2019-05-25T04:06:18.084Z,54.90
2019-05-25T04:08:45.155Z,54.10
2019-05-25T04:11:12.108Z,54.30
2019-05-25T04:13:39.119Z,54.60
2019-05-25T04:16:06.136Z,54.60
2019-05-25T04:18:33.104Z,54.40
2019-05-25T04:21:00.308Z,54.80
2019-05-25T04:23:27.258Z,54.30
2019-05-25T04:25:54.282Z,54.20
2019-05-25T04:28:21.205Z,53.60
2019-05-25T04:30:48.348Z,53.40
2019-05-25T04:33:15.357Z,53.60
2019-05-25T04:35:42.388Z,53.60
2019-05-25T04:38:09.459Z,53.20
2019-05-25T04:40:36.692Z,53.10
2019-05-25T04:43:04.146Z,52.70
2019-05-25T04:45:31.162Z,52.40
2019-05-25T04:47:58.228Z,52.50
2019-05-25T04:50:25.328Z,52.40
2019-05-25T04:52:52.365Z,51.20
2019-05-25T04:55:19.435Z,51.30
2019-05-25T04:57:46.535Z,51.40
2019-05-25T05:00:14.310Z,51.50
2019-05-25T05:02:41.371Z,51.00
2019-05-25T05:05:08.584Z,50.10
2019-05-25T05:07:35.599Z,50.70
2019-05-25T05:10:03.629Z,50.30
2019-05-25T05:12:30.731Z,49.20
2019-05-25T05:14:57.691Z,49.20
2019-05-25T05:17:24.790Z,48.60
2019-05-25T05:19:51.669Z,48.40
2019-05-25T05:22:18.718Z,48.50
2019-05-25T05:24:45.618Z,47.70
2019-05-25T05:27:12.696Z,47.60
2019-05-25T05:29:39.570Z,47.70
2019-05-25T05:32:07.191Z,47.60
2019-05-25T05:34:34.159Z,48.10
2019-05-25T05:37:02.210Z,47.20
2019-05-25T05:39:30.336Z,47.40
2019-05-25T05:41:59.144Z,47.30
2019-05-25T05:44:28.029Z,47.70
2019-05-25T05:46:56.486Z,47.70
2019-05-25T05:49:24.170Z,47.40
2019-05-25T05:51:53.446Z,45.40
2019-05-25T05:54:20.394Z,45.40
2019-05-25T05:56:48.138Z,44.70
2019-05-25T05:59:15.298Z,44.70
2019-05-25T06:01:42.261Z,44.70
2019-05-25T06:04:09.297Z,44.20
2019-05-25T06:06:38.352Z,44.70
2019-05-25T06:09:06.491Z,44.10
2019-05-25T06:11:34.068Z,43.40
2019-05-25T06:14:01.367Z,42.90
2019-05-25T06:16:28.488Z,43.30
2019-05-25T06:18:56.100Z,43.40
2019-05-25T06:21:23.322Z,39.20
2019-05-25T06:23:51.732Z,34.60
2019-05-25T06:26:18.873Z,31.60
2019-05-25T06:28:45.920Z,30.90
2019-05-25T06:31:13.041Z,33.60
2019-05-25T06:33:39.955Z,33.30
2019-05-25T06:36:06.987Z,33.70
2019-05-25T06:38:34.083Z,33.60
2019-05-25T06:41:01.144Z,33.30
2019-05-25T06:43:28.143Z,32.00
2019-05-25T06:45:55.336Z,32.40
2019-05-25T06:48:23.383Z,30.80
2019-05-25T06:50:50.438Z,28.80
2019-05-25T06:53:17.338Z,27.70
2019-05-25T06:55:44.303Z,25.10
2019-05-25T06:58:11.388Z,25.00
2019-05-25T07:00:38.560Z,26.10
2019-05-25T07:03:05.525Z,23.70
2019-05-25T07:05:32.756Z,23.00
2019-05-25T07:08:00.006Z,21.00
2019-05-25T07:10:27.011Z,20.20
2019-05-25T07:12:54.021Z,21.80
2019-05-25T07:15:21.080Z,21.40
2019-05-25T07:17:48.189Z,21.30
2019-05-25T07:20:15.156Z,22.30
2019-05-25T07:22:42.171Z,22.70
2019-05-25T07:25:09.736Z,22.70
2019-05-25T07:27:36.852Z,22.10
2019-05-25T07:30:04.171Z,21.50
2019-05-25T07:32:31.276Z,22.20
2019-05-25T07:34:58.557Z,23.60
2019-05-25T07:37:25.585Z,23.60
2019-05-25T07:39:53.222Z,24.20
2019-05-25T07:42:22.756Z,24.00
2019-05-25T07:44:50.222Z,24.60
2019-05-25T07:47:17.221Z,24.80
2019-05-25T07:49:44.144Z,25.30
2019-05-25T07:52:12.951Z,25.30
2019-05-25T07:54:40.216Z,24.70
2019-05-25T07:57:07.500Z,25.60
2019-05-25T07:59:34.540Z,25.70
2019-05-25T08:02:01.610Z,24.80
2019-05-25T08:04:30.201Z,25.30
2019-05-25T08:06:57.140Z,25.80
2019-05-25T08:09:24.042Z,24.00
2019-05-25T08:11:51.042Z,23.90
2019-05-25T08:14:18.039Z,23.80
2019-05-25T08:16:45.709Z,23.10
2019-05-25T08:19:12.729Z,23.00
2019-05-25T08:21:39.728Z,23.80
2019-05-25T08:24:06.637Z,23.10
2019-05-25T08:26:33.688Z,22.80
2019-05-25T08:29:00.746Z,22.30
2019-05-25T08:31:29.875Z,22.60
2019-05-25T08:33:56.880Z,22.90
2019-05-25T08:36:23.751Z,23.70
2019-05-25T08:38:50.734Z,23.30
2019-05-25T08:41:19.800Z,23.20
2019-05-25T08:43:47.875Z,21.00
2019-05-25T08:46:14.935Z,20.90
2019-05-25T08:48:42.382Z,19.40
2019-05-25T08:51:10.504Z,20.00
2019-05-25T08:53:41.895Z,22.40
2019-05-25T08:56:06.721Z,18.40
2019-05-25T08:58:47.516Z,18.30
2019-05-25T09:01:02.661Z,17.90
2019-05-25T09:03:30.773Z,19.10
2019-05-25T09:05:57.981Z,19.90
2019-05-25T09:08:25.056Z,19.90
2019-05-25T09:10:52.143Z,20.20
2019-05-25T09:13:19.288Z,18.30
2019-05-25T09:15:46.572Z,19.00
2019-05-25T09:18:15.189Z,16.70
2019-05-25T09:20:42.314Z,17.40
2019-05-25T09:23:10.396Z,17.00
2019-05-25T09:25:37.312Z,15.60
2019-05-25T09:28:04.245Z,16.50
2019-05-25T09:30:31.339Z,16.90
2019-05-25T09:32:58.624Z,17.40
2019-05-25T09:35:25.679Z,18.50
2019-05-25T09:37:52.660Z,18.30
2019-05-25T09:40:21.386Z,17.40
2019-05-25T09:42:48.474Z,18.00
2019-05-25T09:45:15.529Z,17.60
2019-05-25T09:47:42.628Z,17.30
2019-05-25T09:50:10.176Z,18.20
2019-05-25T09:52:37.170Z,18.70
2019-05-25T09:55:05.500Z,20.10
2019-05-25T09:57:32.392Z,19.60
2019-05-25T10:00:00.820Z,19.10
2019-05-25T10:02:27.817Z,18.90
2019-05-25T10:04:54.964Z,18.60
2019-05-25T10:07:21.998Z,19.10
2019-05-25T10:09:49.050Z,19.80
2019-05-25T10:12:16.395Z,18.70
2019-05-25T10:14:43.430Z,19.00
2019-05-25T10:17:10.367Z,19.70
2019-05-25T10:19:39.053Z,20.80
2019-05-25T10:22:06.063Z,21.80
2019-05-25T10:24:34.976Z,21.80
2019-05-25T10:27:01.886Z,21.20
2019-05-25T10:29:37.311Z,19.70
2019-05-25T10:31:59.559Z,17.90
2019-05-25T10:34:26.603Z,16.10
2019-05-25T10:36:53.590Z,16.50
2019-05-25T10:39:20.738Z,17.60
2019-05-25T10:41:47.911Z,18.60
2019-05-25T10:44:14.963Z,19.10
2019-05-25T10:46:43.703Z,19.80
2019-05-25T10:49:11.895Z,18.40
2019-05-25T10:51:39.078Z,19.00
2019-05-25T10:54:06.151Z,19.90
2019-05-25T10:56:33.900Z,18.20
2019-05-25T10:59:00.960Z,20.10
2019-05-25T11:01:27.991Z,21.30
2019-05-25T11:03:55.051Z,22.00
2019-05-25T11:06:22.154Z,22.30
2019-05-25T11:08:49.112Z,22.80
2019-05-25T11:11:16.100Z,22.00
2019-05-25T11:13:43.027Z,23.40
2019-05-25T11:16:09.967Z,23.40
2019-05-25T11:18:37.363Z,22.70
2019-05-25T11:21:04.390Z,22.80
2019-05-25T11:23:31.449Z,22.70
2019-05-25T11:25:58.377Z,23.20
2019-05-25T11:28:25.441Z,24.20
2019-05-25T11:30:52.412Z,24.50
2019-05-25T11:33:21.010Z,24.00
2019-05-25T11:35:48.005Z,25.20
2019-05-25T11:38:15.346Z,26.00
2019-05-25T11:40:45.234Z,26.60
2019-05-25T11:43:15.949Z,26.00
2019-05-25T11:45:45.453Z,25.50
2019-05-25T11:48:13.003Z,24.80
2019-05-25T11:50:40.729Z,25.10
2019-05-25T11:53:08.387Z,25.00
2019-05-25T11:55:35.364Z,24.70
2019-05-25T11:58:04.148Z,24.90
2019-05-25T12:00:31.416Z,24.30
2019-05-25T12:03:02.711Z,24.10
2019-05-25T12:05:32.050Z,24.10
2019-05-25T12:07:59.410Z,24.30
2019-05-25T12:10:26.396Z,23.30
2019-05-25T12:12:53.333Z,23.50
2019-05-25T12:15:20.761Z,23.10
2019-05-25T12:17:47.774Z,21.60
2019-05-25T12:20:15.271Z,21.40
2019-05-25T12:22:42.646Z,20.90
2019-05-25T12:25:10.383Z,20.00
2019-05-25T12:27:37.612Z,20.00
2019-05-25T12:30:05.039Z,20.00
2019-05-25T12:32:32.096Z,20.30
2019-05-25T12:34:59.186Z,21.00
2019-05-25T12:37:26.159Z,20.90
2019-05-25T12:39:53.113Z,22.10
2019-05-25T12:42:20.376Z,22.80
2019-05-25T12:44:47.479Z,22.90
2019-05-25T12:47:17.309Z,23.20
2019-05-25T12:49:50.694Z,23.20
2019-05-25T12:52:13.177Z,22.90
2019-05-25T12:54:42.325Z,23.00
2019-05-25T12:57:09.341Z,22.30
2019-05-25T12:59:36.240Z,22.20
2019-05-25T13:02:03.280Z,22.10
2019-05-25T13:04:30.220Z,22.10
2019-05-25T13:06:57.156Z,23.10
2019-05-25T13:09:24.232Z,22.10
2019-05-25T13:11:51.231Z,22.80
2019-05-25T13:14:18.148Z,23.50
2019-05-25T13:16:45.754Z,22.40
2019-05-25T13:19:12.921Z,22.20
2019-05-25T13:21:39.934Z,23.40
2019-05-25T13:24:07.033Z,24.30
2019-05-25T13:26:33.978Z,24.00
2019-05-25T13:29:01.135Z,24.50
2019-05-25T13:31:28.175Z,25.20
2019-05-25T13:33:55.285Z,25.90
2019-05-25T13:36:22.433Z,25.00
2019-05-25T13:38:49.512Z,25.00
2019-05-25T13:41:16.533Z,22.90
2019-05-25T13:43:43.514Z,22.30
2019-05-25T13:46:10.441Z,23.10
2019-05-25T13:48:37.510Z,23.00
2019-05-25T13:51:04.446Z,22.80
2019-05-25T13:53:33.100Z,22.90
2019-05-25T13:56:00.133Z,22.50
2019-05-25T13:58:27.084Z,24.30
2019-05-25T14:00:54.011Z,23.80
2019-05-25T14:03:20.950Z,23.90
2019-05-25T14:05:47.963Z,24.00
2019-05-25T14:08:14.960Z,23.40
2019-05-25T14:10:41.996Z,23.40
2019-05-25T14:13:08.926Z,24.50
2019-05-25T14:15:35.999Z,24.40
2019-05-25T14:18:03.072Z,23.90
2019-05-25T14:20:30.225Z,24.50
2019-05-25T14:22:57.299Z,24.60
2019-05-25T14:25:24.296Z,25.80
2019-05-25T14:27:51.256Z,26.00
2019-05-25T14:30:22.927Z,26.60
2019-05-25T14:32:49.994Z,26.00
2019-05-25T14:35:16.979Z,26.30
2019-05-25T14:37:44.020Z,26.10
2019-05-25T14:40:11.788Z,26.60
2019-05-25T14:42:38.885Z,26.80
2019-05-25T14:45:06.304Z,26.60
2019-05-25T14:47:33.149Z,26.30
2019-05-25T14:50:00.089Z,24.20
2019-05-25T14:52:27.126Z,23.50
2019-05-25T14:54:54.215Z,23.80
2019-05-25T14:57:21.300Z,23.50
2019-05-25T14:59:48.256Z,22.50
2019-05-25T15:02:15.367Z,23.30
2019-05-25T15:04:42.345Z,24.20
2019-05-25T15:07:09.508Z,24.30
2019-05-25T15:09:36.485Z,24.10
2019-05-25T15:12:03.457Z,23.40
2019-05-25T15:14:30.463Z,22.90
2019-05-25T15:16:57.466Z,23.60
2019-05-25T15:19:24.586Z,22.90
2019-05-25T15:21:51.691Z,21.20
2019-05-25T15:24:18.599Z,21.40
2019-05-25T15:26:45.643Z,22.20
2019-05-25T15:29:12.641Z,22.40
2019-05-25T15:31:39.546Z,21.80
2019-05-25T15:34:06.552Z,22.40
2019-05-25T15:36:33.577Z,22.50
2019-05-25T15:39:00.598Z,22.50
2019-05-25T15:41:27.550Z,22.90
2019-05-25T15:43:54.496Z,22.50
2019-05-25T15:46:21.517Z,22.50
2019-05-25T15:49:05.312Z,23.00
2019-05-25T15:51:32.230Z,23.80
2019-05-25T15:53:59.349Z,23.50
2019-05-25T15:56:26.233Z,23.70
2019-05-25T15:58:53.296Z,24.20
2019-05-25T16:01:20.409Z,24.10
2019-05-25T16:03:47.469Z,24.30
2019-05-25T16:06:14.397Z,24.00
2019-05-25T16:08:41.378Z,25.00
2019-05-25T16:11:08.352Z,25.60
2019-05-25T16:13:35.460Z,24.40
2019-05-25T16:16:02.420Z,24.10
2019-05-25T16:18:29.366Z,24.60
2019-05-25T16:20:56.413Z,24.40
2019-05-25T16:23:23.392Z,24.60
2019-05-25T16:25:50.323Z,23.50
2019-05-25T16:28:17.351Z,22.50
2019-05-25T16:30:44.338Z,22.70
2019-05-25T16:33:13.770Z,22.10
2019-05-25T16:35:40.058Z,22.40
2019-05-25T16:38:07.086Z,22.50
2019-05-25T16:40:34.247Z,22.70
2019-05-25T16:43:01.239Z,23.10
2019-05-25T16:45:28.224Z,23.50
2019-05-25T16:47:56.262Z,23.60
2019-05-25T16:50:23.336Z,23.30
2019-05-25T16:52:50.349Z,23.50
2019-05-25T16:55:17.720Z,23.90
2019-05-25T16:57:44.760Z,23.60
2019-05-25T17:00:12.087Z,23.10
2019-05-25T17:02:39.228Z,22.50
2019-05-25T17:05:06.825Z,22.30
2019-05-25T17:07:33.896Z,21.50
2019-05-25T17:10:00.929Z,21.50
2019-05-25T17:12:27.986Z,21.50
2019-05-25T17:14:54.974Z,21.50
2019-05-25T17:17:23.625Z,21.50
2019-05-25T17:19:50.725Z,21.40
2019-05-25T17:22:17.682Z,21.40
2019-05-25T17:24:44.747Z,21.40
2019-05-25T17:27:11.790Z,21.40
2019-05-25T17:29:38.759Z,21.10
2019-05-25T17:32:06.336Z,22.00
2019-05-25T17:34:33.330Z,21.40
2019-05-25T17:37:00.581Z,22.20
2019-05-25T17:39:27.595Z,21.90
2019-05-25T17:41:54.802Z,21.40
2019-05-25T17:44:21.988Z,21.30
2019-05-25T17:46:48.994Z,21.40
2019-05-25T17:49:19.059Z,21.40
2019-05-25T17:51:46.035Z,21.40
2019-05-25T17:54:13.215Z,21.30
2019-05-25T17:56:40.178Z,21.50
2019-05-25T17:59:07.156Z,22.40
2019-05-25T18:01:34.094Z,22.60
2019-05-25T18:04:07.320Z,23.00
2019-05-25T18:06:31.345Z,23.40
2019-05-25T18:08:58.308Z,23.80
2019-05-25T18:11:25.499Z,24.50
2019-05-25T18:13:52.543Z,24.60
2019-05-25T18:16:19.666Z,24.70
2019-05-25T18:18:46.600Z,25.00
2019-05-25T18:21:13.484Z,24.40
2019-05-25T18:23:40.733Z,23.90
2019-05-25T18:26:07.743Z,24.60
2019-05-25T18:28:34.705Z,24.30
2019-05-25T18:31:01.777Z,24.30
2019-05-25T18:33:28.748Z,24.60
2019-05-25T18:35:55.735Z,24.80
2019-05-25T18:38:22.785Z,24.90
2019-05-25T18:40:50.017Z,25.10
2019-05-25T18:43:16.912Z,25.60
2019-05-25T18:45:43.980Z,25.90
2019-05-25T18:48:11.054Z,26.20
2019-05-25T18:50:38.097Z,26.50
2019-05-25T18:53:05.098Z,27.00
2019-05-25T18:55:32.134Z,27.30
2019-05-25T18:58:00.370Z,27.10
2019-05-25T19:00:27.352Z,27.80
2019-05-25T19:02:54.416Z,28.10
2019-05-25T19:05:21.434Z,28.30
2019-05-25T19:07:48.353Z,28.50
2019-05-25T19:10:17.462Z,28.50
2019-05-25T19:12:44.380Z,28.50
2019-05-25T19:15:12.216Z,28.40
2019-05-25T19:17:39.152Z,28.40
2019-05-25T19:20:06.855Z,28.40
2019-05-25T19:22:33.852Z,28.40
2019-05-25T19:25:00.744Z,28.60
2019-05-25T19:27:27.651Z,28.40
2019-05-25T19:29:54.772Z,28.90
2019-05-25T19:32:21.757Z,28.90
2019-05-25T19:34:58.992Z,29.20
2019-05-25T19:37:19.368Z,29.40
2019-05-25T19:39:46.308Z,29.50
2019-05-25T19:42:13.356Z,29.40
2019-05-25T19:44:40.345Z,29.60
2019-05-25T19:47:07.372Z,29.50
2019-05-25T19:49:34.388Z,29.70
2019-05-25T19:52:01.421Z,29.50
2019-05-25T19:54:28.312Z,29.90
2019-05-25T19:56:55.332Z,30.00
2019-05-25T19:59:22.246Z,30.00
2019-05-25T20:01:50.996Z,30.00
2019-05-25T20:04:17.877Z,30.10
2019-05-25T20:06:46.726Z,30.30
2019-05-25T20:09:13.638Z,30.70
2019-05-25T20:11:40.816Z,30.40
2019-05-25T20:14:07.834Z,30.60
2019-05-25T20:16:34.887Z,31.40
2019-05-25T20:19:02.001Z,30.70
2019-05-25T20:21:29.088Z,30.90
2019-05-25T20:23:56.075Z,30.80
2019-05-25T20:26:23.005Z,31.10
2019-05-25T20:28:50.781Z,31.20
2019-05-25T20:31:18.066Z,31.30
2019-05-25T20:33:45.068Z,31.40
2019-05-25T20:36:12.022Z,31.50
2019-05-25T20:38:39.108Z,31.60
2019-05-25T20:41:06.760Z,31.70
2019-05-25T20:43:33.749Z,31.70
2019-05-25T20:46:00.806Z,31.70
2019-05-25T20:48:27.677Z,32.10
2019-05-25T20:50:54.686Z,32.10
2019-05-25T20:53:22.759Z,31.80
2019-05-25T20:55:49.917Z,31.80
2019-05-25T20:58:16.833Z,32.10
2019-05-25T21:00:44.073Z,32.10
2019-05-25T21:03:11.004Z,32.40
2019-05-25T21:05:49.915Z,32.70
2019-05-25T21:08:07.154Z,32.60
2019-05-25T21:10:34.297Z,32.50
2019-05-25T21:13:01.366Z,33.50
2019-05-25T21:15:28.340Z,32.80
2019-05-25T21:17:55.303Z,33.10
2019-05-25T21:20:22.226Z,33.50
2019-05-25T21:22:49.494Z,33.80
2019-05-25T21:25:16.742Z,33.80
2019-05-25T21:27:43.859Z,33.70
2019-05-25T21:30:11.528Z,33.80
2019-05-25T21:32:38.765Z,33.70
2019-05-25T21:35:06.493Z,34.00
2019-05-25T21:37:35.289Z,33.80
2019-05-25T21:40:02.868Z,33.90
2019-05-25T21:42:29.790Z,34.30
2019-05-25T21:44:56.900Z,34.20
2019-05-25T21:47:23.941Z,34.20
2019-05-25T21:49:50.824Z,34.40
2019-05-25T21:52:17.947Z,34.50
2019-05-25T21:54:45.248Z,34.20
2019-05-25T21:57:12.345Z,34.30
2019-05-25T21:59:39.282Z,34.80
2019-05-25T22:02:06.385Z,34.80
2019-05-25T22:04:33.402Z,34.50
2019-05-25T22:07:00.474Z,35.00
2019-05-25T22:09:27.472Z,35.20
2019-05-25T22:11:54.417Z,34.50
2019-05-25T22:14:23.616Z,35.10
2019-05-25T22:16:50.777Z,35.00
2019-05-25T22:19:17.813Z,35.50
2019-05-25T22:21:46.163Z,36.30
2019-05-25T22:24:13.530Z,36.30
2019-05-25T22:26:40.479Z,36.20
2019-05-25T22:29:07.757Z,36.20
2019-05-25T22:31:36.823Z,36.20
2019-05-25T22:34:03.848Z,36.90
2019-05-25T22:36:40.379Z,37.10
2019-05-25T22:39:01.842Z,37.30
2019-05-25T22:41:28.884Z,37.90
2019-05-25T22:43:55.935Z,38.20
2019-05-25T22:46:23.349Z,38.10
2019-05-25T22:48:50.331Z,38.30
2019-05-25T22:51:17.353Z,39.00
2019-05-25T22:53:44.423Z,39.60
2019-05-25T22:56:11.789Z,40.00
2019-05-25T22:58:38.729Z,40.20
2019-05-25T23:01:05.683Z,40.40
2019-05-25T23:03:34.491Z,40.80
2019-05-25T23:06:01.448Z,40.90
2019-05-25T23:08:28.343Z,41.50
2019-05-25T23:10:56.653Z,41.90
2019-05-25T23:13:23.555Z,41.90
2019-05-25T23:15:50.641Z,42.90
2019-05-25T23:18:20.743Z,43.80
2019-05-25T23:20:47.946Z,43.30
2019-05-25T23:23:14.873Z,43.30
2019-05-25T23:25:42.047Z,43.40
2019-05-25T23:28:09.000Z,43.50
2019-05-25T23:30:36.136Z,44.10
2019-05-25T23:33:03.122Z,43.80
2019-05-25T23:35:30.164Z,43.90
2019-05-25T23:37:57.112Z,44.40
2019-05-25T23:40:24.179Z,44.90
2019-05-25T23:42:51.084Z,44.80
2019-05-25T23:45:19.812Z,44.80
2019-05-25T23:47:46.780Z,44.80
2019-05-25T23:50:14.260Z,44.70
2019-05-25T23:52:41.230Z,44.60
2019-05-25T23:55:08.690Z,44.60
2019-05-25T23:57:35.581Z,44.60
